sensor_id;sensor_type;location;lat;lon;timestamp;P1;durP1;ratioP1;P2;durP2;ratioP2
36291;SDS011;22327;51.208;6.418;2023-07-22T00:02:15;8.98;;;6.25;;
36291;SDS011;22327;51.208;6.418;2023-07-22T00:05:16;9.00;;;5.47;;
36291;SDS011;22327;51.208;6.418;2023-07-22T00:08:22;8.95;;;5.47;;
36291;SDS011;22327;51.208;6.418;2023-07-22T00:11:23;8.98;;;6.00;;
36291;SDS011;22327;51.208;6.418;2023-07-22T00:14:23;8.00;;;6.18;;
36291;SDS011;22327;51.208;6.418;2023-07-22T00:17:24;9.95;;;6.78;;
36291;SDS011;22327;51.208;6.418;2023-07-22T00:20:24;7.20;;;5.68;;
36291;SDS011;22327;51.208;6.418;2023-07-22T00:23:25;8.90;;;6.00;;
36291;SDS011;22327;51.208;6.418;2023-07-22T00:26:26;10.20;;;5.47;;
36291;SDS011;22327;51.208;6.418;2023-07-22T00:29:27;7.32;;;5.75;;
36291;SDS011;22327;51.208;6.418;2023-07-22T00:32:27;6.97;;;5.38;;
36291;SDS011;22327;51.208;6.418;2023-07-22T00:35:28;7.07;;;5.63;;
36291;SDS011;22327;51.208;6.418;2023-07-22T00:38:28;7.07;;;5.50;;
36291;SDS011;22327;51.208;6.418;2023-07-22T00:41:29;6.57;;;5.03;;
36291;SDS011;22327;51.208;6.418;2023-07-22T00:44:29;8.20;;;5.32;;
36291;SDS011;22327;51.208;6.418;2023-07-22T00:47:30;7.43;;;5.18;;
36291;SDS011;22327;51.208;6.418;2023-07-22T00:50:31;7.53;;;4.60;;
36291;SDS011;22327;51.208;6.418;2023-07-22T00:53:33;7.95;;;5.10;;
36291;SDS011;22327;51.208;6.418;2023-07-22T00:56:35;9.35;;;5.18;;
36291;SDS011;22327;51.208;6.418;2023-07-22T00:59:36;8.60;;;5.00;;
36291;SDS011;22327;51.208;6.418;2023-07-22T01:02:37;9.02;;;5.25;;
36291;SDS011;22327;51.208;6.418;2023-07-22T01:05:38;8.10;;;5.47;;
36291;SDS011;22327;51.208;6.418;2023-07-22T01:08:40;9.48;;;5.78;;
36291;SDS011;22327;51.208;6.418;2023-07-22T01:11:40;8.52;;;4.50;;
36291;SDS011;22327;51.208;6.418;2023-07-22T01:14:41;9.02;;;4.60;;
36291;SDS011;22327;51.208;6.418;2023-07-22T01:17:42;6.65;;;4.72;;
36291;SDS011;22327;51.208;6.418;2023-07-22T01:20:44;5.63;;;4.57;;
36291;SDS011;22327;51.208;6.418;2023-07-22T01:23:46;6.68;;;4.90;;
36291;SDS011;22327;51.208;6.418;2023-07-22T01:26:47;6.28;;;4.68;;
36291;SDS011;22327;51.208;6.418;2023-07-22T01:29:50;7.50;;;4.65;;
36291;SDS011;22327;51.208;6.418;2023-07-22T01:32:51;5.90;;;4.40;;
36291;SDS011;22327;51.208;6.418;2023-07-22T01:35:52;6.68;;;4.70;;
36291;SDS011;22327;51.208;6.418;2023-07-22T01:38:52;9.13;;;5.50;;
36291;SDS011;22327;51.208;6.418;2023-07-22T01:41:53;6.22;;;4.63;;
36291;SDS011;22327;51.208;6.418;2023-07-22T01:44:53;5.38;;;4.32;;
36291;SDS011;22327;51.208;6.418;2023-07-22T01:47:54;5.50;;;4.03;;
36291;SDS011;22327;51.208;6.418;2023-07-22T01:50:54;8.63;;;4.88;;
36291;SDS011;22327;51.208;6.418;2023-07-22T01:53:55;7.07;;;4.35;;
36291;SDS011;22327;51.208;6.418;2023-07-22T01:56:56;6.10;;;4.45;;
36291;SDS011;22327;51.208;6.418;2023-07-22T01:59:57;6.68;;;4.90;;
36291;SDS011;22327;51.208;6.418;2023-07-22T02:02:57;6.88;;;4.40;;
36291;SDS011;22327;51.208;6.418;2023-07-22T02:06:02;6.57;;;4.32;;
36291;SDS011;22327;51.208;6.418;2023-07-22T02:09:03;7.13;;;4.65;;
36291;SDS011;22327;51.208;6.418;2023-07-22T02:12:08;7.68;;;4.53;;
36291;SDS011;22327;51.208;6.418;2023-07-22T02:15:09;7.35;;;4.38;;
36291;SDS011;22327;51.208;6.418;2023-07-22T02:18:10;5.88;;;4.15;;
36291;SDS011;22327;51.208;6.418;2023-07-22T02:21:10;6.97;;;5.20;;
36291;SDS011;22327;51.208;6.418;2023-07-22T02:24:12;6.07;;;4.60;;
36291;SDS011;22327;51.208;6.418;2023-07-22T02:27:15;7.88;;;4.70;;
36291;SDS011;22327;51.208;6.418;2023-07-22T02:30:16;6.03;;;4.57;;
36291;SDS011;22327;51.208;6.418;2023-07-22T02:33:18;6.25;;;4.63;;
36291;SDS011;22327;51.208;6.418;2023-07-22T02:36:19;6.57;;;4.32;;
36291;SDS011;22327;51.208;6.418;2023-07-22T02:39:19;6.50;;;4.40;;
36291;SDS011;22327;51.208;6.418;2023-07-22T02:42:20;5.60;;;4.40;;
36291;SDS011;22327;51.208;6.418;2023-07-22T02:45:20;5.63;;;4.55;;
36291;SDS011;22327;51.208;6.418;2023-07-22T02:48:21;6.75;;;4.88;;
36291;SDS011;22327;51.208;6.418;2023-07-22T02:51:21;8.65;;;4.57;;
36291;SDS011;22327;51.208;6.418;2023-07-22T02:54:22;6.60;;;4.70;;
36291;SDS011;22327;51.208;6.418;2023-07-22T02:57:22;7.45;;;4.88;;
36291;SDS011;22327;51.208;6.418;2023-07-22T03:00:23;8.07;;;5.40;;
36291;SDS011;22327;51.208;6.418;2023-07-22T03:03:23;7.28;;;4.93;;
36291;SDS011;22327;51.208;6.418;2023-07-22T03:06:24;9.13;;;5.25;;
36291;SDS011;22327;51.208;6.418;2023-07-22T03:09:26;6.70;;;4.55;;
36291;SDS011;22327;51.208;6.418;2023-07-22T03:12:26;6.35;;;4.82;;
36291;SDS011;22327;51.208;6.418;2023-07-22T03:15:27;7.78;;;4.80;;
36291;SDS011;22327;51.208;6.418;2023-07-22T03:18:28;7.70;;;5.07;;
36291;SDS011;22327;51.208;6.418;2023-07-22T03:21:29;8.50;;;4.68;;
36291;SDS011;22327;51.208;6.418;2023-07-22T03:24:29;7.90;;;4.80;;
36291;SDS011;22327;51.208;6.418;2023-07-22T03:27:29;7.30;;;4.93;;
36291;SDS011;22327;51.208;6.418;2023-07-22T03:30:31;6.50;;;4.75;;
36291;SDS011;22327;51.208;6.418;2023-07-22T03:33:33;6.30;;;4.65;;
36291;SDS011;22327;51.208;6.418;2023-07-22T03:36:34;7.15;;;4.43;;
36291;SDS011;22327;51.208;6.418;2023-07-22T03:39:35;5.60;;;4.20;;
36291;SDS011;22327;51.208;6.418;2023-07-22T03:42:35;7.45;;;5.10;;
36291;SDS011;22327;51.208;6.418;2023-07-22T03:45:36;6.57;;;4.25;;
36291;SDS011;22327;51.208;6.418;2023-07-22T03:48:36;6.95;;;4.55;;
36291;SDS011;22327;51.208;6.418;2023-07-22T03:51:37;7.30;;;4.75;;
36291;SDS011;22327;51.208;6.418;2023-07-22T03:54:37;7.55;;;4.45;;
36291;SDS011;22327;51.208;6.418;2023-07-22T03:57:38;5.88;;;4.15;;
36291;SDS011;22327;51.208;6.418;2023-07-22T04:00:38;6.00;;;4.60;;
36291;SDS011;22327;51.208;6.418;2023-07-22T04:03:39;6.80;;;4.53;;
36291;SDS011;22327;51.208;6.418;2023-07-22T04:06:39;8.50;;;5.18;;
36291;SDS011;22327;51.208;6.418;2023-07-22T04:09:40;6.03;;;4.45;;
36291;SDS011;22327;51.208;6.418;2023-07-22T04:12:41;5.93;;;4.75;;
36291;SDS011;22327;51.208;6.418;2023-07-22T04:15:41;7.75;;;4.32;;
36291;SDS011;22327;51.208;6.418;2023-07-22T04:18:42;5.85;;;4.10;;
36291;SDS011;22327;51.208;6.418;2023-07-22T04:21:42;7.47;;;4.80;;
36291;SDS011;22327;51.208;6.418;2023-07-22T04:24:43;8.38;;;4.90;;
36291;SDS011;22327;51.208;6.418;2023-07-22T04:27:43;5.35;;;4.45;;
36291;SDS011;22327;51.208;6.418;2023-07-22T04:30:53;7.38;;;4.18;;
36291;SDS011;22327;51.208;6.418;2023-07-22T04:33:58;6.63;;;4.40;;
36291;SDS011;22327;51.208;6.418;2023-07-22T04:36:59;6.53;;;4.50;;
36291;SDS011;22327;51.208;6.418;2023-07-22T04:40:00;5.50;;;4.25;;
36291;SDS011;22327;51.208;6.418;2023-07-22T04:43:01;5.47;;;4.05;;
36291;SDS011;22327;51.208;6.418;2023-07-22T04:46:03;6.45;;;4.10;;
36291;SDS011;22327;51.208;6.418;2023-07-22T04:49:03;5.28;;;4.45;;
36291;SDS011;22327;51.208;6.418;2023-07-22T04:52:04;6.80;;;3.85;;
36291;SDS011;22327;51.208;6.418;2023-07-22T04:55:05;6.18;;;4.78;;
36291;SDS011;22327;51.208;6.418;2023-07-22T04:58:08;7.55;;;4.50;;
36291;SDS011;22327;51.208;6.418;2023-07-22T05:01:12;5.35;;;4.18;;
36291;SDS011;22327;51.208;6.418;2023-07-22T05:04:12;6.30;;;4.50;;
36291;SDS011;22327;51.208;6.418;2023-07-22T05:07:13;7.15;;;4.80;;
36291;SDS011;22327;51.208;6.418;2023-07-22T05:10:14;6.25;;;4.20;;
36291;SDS011;22327;51.208;6.418;2023-07-22T05:13:15;6.55;;;4.45;;
36291;SDS011;22327;51.208;6.418;2023-07-22T05:16:16;4.47;;;3.80;;
36291;SDS011;22327;51.208;6.418;2023-07-22T05:19:17;5.13;;;3.80;;
36291;SDS011;22327;51.208;6.418;2023-07-22T05:22:18;5.53;;;4.10;;
36291;SDS011;22327;51.208;6.418;2023-07-22T05:25:19;5.75;;;4.45;;
36291;SDS011;22327;51.208;6.418;2023-07-22T05:28:20;6.85;;;4.32;;
36291;SDS011;22327;51.208;6.418;2023-07-22T05:31:20;5.28;;;4.13;;
36291;SDS011;22327;51.208;6.418;2023-07-22T05:34:21;4.95;;;4.38;;
36291;SDS011;22327;51.208;6.418;2023-07-22T05:37:21;5.32;;;4.43;;
36291;SDS011;22327;51.208;6.418;2023-07-22T05:40:23;7.70;;;4.38;;
36291;SDS011;22327;51.208;6.418;2023-07-22T05:43:23;6.20;;;4.50;;
36291;SDS011;22327;51.208;6.418;2023-07-22T05:46:24;7.90;;;4.72;;
36291;SDS011;22327;51.208;6.418;2023-07-22T05:49:24;7.20;;;4.15;;
36291;SDS011;22327;51.208;6.418;2023-07-22T05:52:25;6.20;;;4.75;;
36291;SDS011;22327;51.208;6.418;2023-07-22T05:55:25;6.45;;;4.35;;
36291;SDS011;22327;51.208;6.418;2023-07-22T05:58:26;7.00;;;4.35;;
36291;SDS011;22327;51.208;6.418;2023-07-22T06:01:27;4.97;;;4.38;;
36291;SDS011;22327;51.208;6.418;2023-07-22T06:04:27;8.77;;;5.00;;
36291;SDS011;22327;51.208;6.418;2023-07-22T06:07:28;6.35;;;4.72;;
36291;SDS011;22327;51.208;6.418;2023-07-22T06:10:28;6.80;;;4.30;;
36291;SDS011;22327;51.208;6.418;2023-07-22T06:13:30;6.95;;;4.63;;
36291;SDS011;22327;51.208;6.418;2023-07-22T06:16:30;6.72;;;4.70;;
36291;SDS011;22327;51.208;6.418;2023-07-22T06:19:31;7.88;;;4.63;;
36291;SDS011;22327;51.208;6.418;2023-07-22T06:22:31;6.20;;;4.82;;
36291;SDS011;22327;51.208;6.418;2023-07-22T06:25:32;7.28;;;4.53;;
36291;SDS011;22327;51.208;6.418;2023-07-22T06:28:32;7.75;;;5.63;;
36291;SDS011;22327;51.208;6.418;2023-07-22T06:31:33;7.30;;;5.00;;
36291;SDS011;22327;51.208;6.418;2023-07-22T06:34:33;6.30;;;4.18;;
36291;SDS011;22327;51.208;6.418;2023-07-22T06:37:34;6.97;;;5.13;;
36291;SDS011;22327;51.208;6.418;2023-07-22T06:40:34;6.03;;;5.10;;
36291;SDS011;22327;51.208;6.418;2023-07-22T06:43:35;6.03;;;4.40;;
36291;SDS011;22327;51.208;6.418;2023-07-22T06:46:35;6.70;;;4.60;;
36291;SDS011;22327;51.208;6.418;2023-07-22T06:49:36;6.78;;;4.97;;
36291;SDS011;22327;51.208;6.418;2023-07-22T06:52:36;7.95;;;4.85;;
36291;SDS011;22327;51.208;6.418;2023-07-22T06:55:37;6.30;;;5.00;;
36291;SDS011;22327;51.208;6.418;2023-07-22T06:58:38;6.18;;;4.53;;
36291;SDS011;22327;51.208;6.418;2023-07-22T07:01:38;7.40;;;4.97;;
36291;SDS011;22327;51.208;6.418;2023-07-22T07:04:39;9.90;;;5.32;;
36291;SDS011;22327;51.208;6.418;2023-07-22T07:07:39;5.78;;;4.63;;
36291;SDS011;22327;51.208;6.418;2023-07-22T07:10:41;7.25;;;4.40;;
36291;SDS011;22327;51.208;6.418;2023-07-22T07:13:41;7.50;;;5.03;;
36291;SDS011;22327;51.208;6.418;2023-07-22T07:16:42;7.57;;;4.78;;
36291;SDS011;22327;51.208;6.418;2023-07-22T07:19:42;8.85;;;5.43;;
36291;SDS011;22327;51.208;6.418;2023-07-22T07:22:43;6.90;;;4.70;;
36291;SDS011;22327;51.208;6.418;2023-07-22T07:25:43;6.20;;;4.15;;
36291;SDS011;22327;51.208;6.418;2023-07-22T07:28:45;6.80;;;4.85;;
36291;SDS011;22327;51.208;6.418;2023-07-22T07:31:50;7.38;;;4.68;;
36291;SDS011;22327;51.208;6.418;2023-07-22T07:34:51;5.90;;;4.80;;
36291;SDS011;22327;51.208;6.418;2023-07-22T07:37:51;5.93;;;4.40;;
36291;SDS011;22327;51.208;6.418;2023-07-22T07:40:53;7.45;;;4.70;;
36291;SDS011;22327;51.208;6.418;2023-07-22T07:43:55;5.57;;;4.43;;
36291;SDS011;22327;51.208;6.418;2023-07-22T07:46:56;4.55;;;3.92;;
36291;SDS011;22327;51.208;6.418;2023-07-22T07:49:56;7.43;;;3.75;;
36291;SDS011;22327;51.208;6.418;2023-07-22T07:52:57;5.63;;;4.10;;
36291;SDS011;22327;51.208;6.418;2023-07-22T07:55:57;5.85;;;3.88;;
36291;SDS011;22327;51.208;6.418;2023-07-22T07:58:58;5.57;;;4.07;;
36291;SDS011;22327;51.208;6.418;2023-07-22T08:01:58;4.07;;;3.65;;
36291;SDS011;22327;51.208;6.418;2023-07-22T08:04:59;4.90;;;3.95;;
36291;SDS011;22327;51.208;6.418;2023-07-22T08:07:59;7.25;;;3.95;;
36291;SDS011;22327;51.208;6.418;2023-07-22T08:11:04;5.88;;;3.88;;
36291;SDS011;22327;51.208;6.418;2023-07-22T08:14:07;4.63;;;3.50;;
36291;SDS011;22327;51.208;6.418;2023-07-22T08:17:08;5.05;;;3.28;;
36291;SDS011;22327;51.208;6.418;2023-07-22T08:20:08;5.22;;;4.03;;
36291;SDS011;22327;51.208;6.418;2023-07-22T08:23:10;4.15;;;3.03;;
36291;SDS011;22327;51.208;6.418;2023-07-22T08:26:11;5.57;;;4.00;;
36291;SDS011;22327;51.208;6.418;2023-07-22T08:29:12;4.20;;;3.35;;
36291;SDS011;22327;51.208;6.418;2023-07-22T08:32:12;5.10;;;3.40;;
36291;SDS011;22327;51.208;6.418;2023-07-22T08:35:13;3.95;;;2.92;;
36291;SDS011;22327;51.208;6.418;2023-07-22T08:38:13;4.47;;;3.53;;
36291;SDS011;22327;51.208;6.418;2023-07-22T08:41:14;3.20;;;2.90;;
36291;SDS011;22327;51.208;6.418;2023-07-22T08:44:18;4.28;;;3.05;;
36291;SDS011;22327;51.208;6.418;2023-07-22T08:47:21;5.20;;;3.28;;
36291;SDS011;22327;51.208;6.418;2023-07-22T08:53:29;2.75;;;2.45;;
36291;SDS011;22327;51.208;6.418;2023-07-22T08:56:30;3.95;;;2.70;;
36291;SDS011;22327;51.208;6.418;2023-07-22T08:59:31;2.50;;;2.30;;
36291;SDS011;22327;51.208;6.418;2023-07-22T09:02:33;4.60;;;2.60;;
36291;SDS011;22327;51.208;6.418;2023-07-22T09:05:35;4.72;;;2.40;;
36291;SDS011;22327;51.208;6.418;2023-07-22T09:08:36;2.85;;;2.17;;
36291;SDS011;22327;51.208;6.418;2023-07-22T09:11:38;5.47;;;1.73;;
36291;SDS011;22327;51.208;6.418;2023-07-22T09:14:39;2.60;;;1.85;;
36291;SDS011;22327;51.208;6.418;2023-07-22T09:17:41;2.00;;;1.80;;
36291;SDS011;22327;51.208;6.418;2023-07-22T09:20:41;2.70;;;1.80;;
36291;SDS011;22327;51.208;6.418;2023-07-22T09:23:42;2.30;;;2.00;;
36291;SDS011;22327;51.208;6.418;2023-07-22T09:26:43;2.95;;;2.00;;
36291;SDS011;22327;51.208;6.418;2023-07-22T09:29:44;2.60;;;1.70;;
36291;SDS011;22327;51.208;6.418;2023-07-22T09:32:47;2.70;;;1.55;;
36291;SDS011;22327;51.208;6.418;2023-07-22T09:35:48;2.30;;;1.75;;
36291;SDS011;22327;51.208;6.418;2023-07-22T09:39:02;2.80;;;1.60;;
36291;SDS011;22327;51.208;6.418;2023-07-22T09:42:03;2.33;;;1.90;;
36291;SDS011;22327;51.208;6.418;2023-07-22T09:45:04;2.17;;;1.55;;
36291;SDS011;22327;51.208;6.418;2023-07-22T09:48:05;2.53;;;1.80;;
36291;SDS011;22327;51.208;6.418;2023-07-22T09:51:14;1.85;;;1.60;;
36291;SDS011;22327;51.208;6.418;2023-07-22T09:54:16;3.05;;;1.42;;
36291;SDS011;22327;51.208;6.418;2023-07-22T09:57:17;2.05;;;1.58;;
36291;SDS011;22327;51.208;6.418;2023-07-22T10:00:18;2.75;;;1.73;;
36291;SDS011;22327;51.208;6.418;2023-07-22T10:03:21;1.60;;;1.30;;
36291;SDS011;22327;51.208;6.418;2023-07-22T10:06:27;4.50;;;1.63;;
36291;SDS011;22327;51.208;6.418;2023-07-22T10:09:29;1.45;;;1.35;;
36291;SDS011;22327;51.208;6.418;2023-07-22T10:12:30;2.17;;;1.30;;
36291;SDS011;22327;51.208;6.418;2023-07-22T10:15:32;3.08;;;1.58;;
36291;SDS011;22327;51.208;6.418;2023-07-22T10:18:34;1.77;;;1.23;;
36291;SDS011;22327;51.208;6.418;2023-07-22T10:21:38;2.38;;;1.42;;
36291;SDS011;22327;51.208;6.418;2023-07-22T10:24:39;2.80;;;1.60;;
36291;SDS011;22327;51.208;6.418;2023-07-22T10:27:42;2.72;;;1.88;;
36291;SDS011;22327;51.208;6.418;2023-07-22T10:30:43;3.33;;;1.63;;
36291;SDS011;22327;51.208;6.418;2023-07-22T10:33:44;1.70;;;1.25;;
36291;SDS011;22327;51.208;6.418;2023-07-22T10:36:47;2.80;;;1.53;;
36291;SDS011;22327;51.208;6.418;2023-07-22T10:39:48;1.65;;;1.35;;
36291;SDS011;22327;51.208;6.418;2023-07-22T10:42:52;2.28;;;1.30;;
36291;SDS011;22327;51.208;6.418;2023-07-22T10:45:55;2.08;;;1.60;;
36291;SDS011;22327;51.208;6.418;2023-07-22T10:49:06;2.35;;;1.20;;
36291;SDS011;22327;51.208;6.418;2023-07-22T10:52:37;1.55;;;1.15;;
36291;SDS011;22327;51.208;6.418;2023-07-22T10:56:02;2.58;;;1.20;;
36291;SDS011;22327;51.208;6.418;2023-07-22T10:59:05;1.85;;;1.27;;
36291;SDS011;22327;51.208;6.418;2023-07-22T11:02:22;1.73;;;1.20;;
36291;SDS011;22327;51.208;6.418;2023-07-22T11:05:24;1.55;;;1.23;;
36291;SDS011;22327;51.208;6.418;2023-07-22T11:08:48;2.53;;;1.67;;
36291;SDS011;22327;51.208;6.418;2023-07-22T11:11:49;2.03;;;1.33;;
36291;SDS011;22327;51.208;6.418;2023-07-22T11:14:50;3.40;;;1.30;;
36291;SDS011;22327;51.208;6.418;2023-07-22T11:18:11;1.65;;;1.55;;
36291;SDS011;22327;51.208;6.418;2023-07-22T11:21:12;2.33;;;1.70;;
36291;SDS011;22327;51.208;6.418;2023-07-22T11:24:13;3.25;;;1.85;;
36291;SDS011;22327;51.208;6.418;2023-07-22T11:27:14;2.70;;;1.65;;
36291;SDS011;22327;51.208;6.418;2023-07-22T11:30:15;1.80;;;1.70;;
36291;SDS011;22327;51.208;6.418;2023-07-22T11:33:16;1.98;;;1.20;;
36291;SDS011;22327;51.208;6.418;2023-07-22T11:36:16;2.47;;;1.55;;
36291;SDS011;22327;51.208;6.418;2023-07-22T11:39:18;3.80;;;1.90;;
36291;SDS011;22327;51.208;6.418;2023-07-22T11:42:24;2.00;;;1.30;;
36291;SDS011;22327;51.208;6.418;2023-07-22T11:45:24;1.85;;;1.40;;
36291;SDS011;22327;51.208;6.418;2023-07-22T11:48:25;2.33;;;1.52;;
36291;SDS011;22327;51.208;6.418;2023-07-22T11:51:25;1.55;;;1.20;;
36291;SDS011;22327;51.208;6.418;2023-07-22T11:54:26;1.88;;;1.40;;
36291;SDS011;22327;51.208;6.418;2023-07-22T11:57:28;1.55;;;1.08;;
36291;SDS011;22327;51.208;6.418;2023-07-22T12:00:29;1.95;;;1.30;;
36291;SDS011;22327;51.208;6.418;2023-07-22T12:03:33;1.88;;;1.42;;
36291;SDS011;22327;51.208;6.418;2023-07-22T12:06:34;2.08;;;1.13;;
36291;SDS011;22327;51.208;6.418;2023-07-22T12:09:34;1.65;;;1.52;;
36291;SDS011;22327;51.208;6.418;2023-07-22T12:15:58;1.98;;;1.40;;
36291;SDS011;22327;51.208;6.418;2023-07-22T12:19:02;2.40;;;1.55;;
36291;SDS011;22327;51.208;6.418;2023-07-22T12:22:03;2.60;;;1.33;;
36291;SDS011;22327;51.208;6.418;2023-07-22T12:25:05;1.98;;;1.40;;
36291;SDS011;22327;51.208;6.418;2023-07-22T12:28:06;1.63;;;1.40;;
36291;SDS011;22327;51.208;6.418;2023-07-22T12:31:07;3.33;;;1.30;;
36291;SDS011;22327;51.208;6.418;2023-07-22T12:34:09;3.47;;;1.60;;
36291;SDS011;22327;51.208;6.418;2023-07-22T12:37:09;2.47;;;1.60;;
36291;SDS011;22327;51.208;6.418;2023-07-22T12:40:10;2.17;;;1.67;;
36291;SDS011;22327;51.208;6.418;2023-07-22T12:43:12;2.58;;;1.70;;
36291;SDS011;22327;51.208;6.418;2023-07-22T12:46:12;2.60;;;1.63;;
36291;SDS011;22327;51.208;6.418;2023-07-22T12:49:13;1.95;;;1.50;;
36291;SDS011;22327;51.208;6.418;2023-07-22T12:52:13;1.77;;;1.20;;
36291;SDS011;22327;51.208;6.418;2023-07-22T12:55:14;2.40;;;1.83;;
36291;SDS011;22327;51.208;6.418;2023-07-22T12:58:14;1.98;;;1.40;;
36291;SDS011;22327;51.208;6.418;2023-07-22T13:01:16;2.60;;;1.45;;
36291;SDS011;22327;51.208;6.418;2023-07-22T13:04:16;3.40;;;1.52;;
36291;SDS011;22327;51.208;6.418;2023-07-22T13:07:17;2.83;;;1.85;;
36291;SDS011;22327;51.208;6.418;2023-07-22T13:10:17;1.67;;;1.40;;
36291;SDS011;22327;51.208;6.418;2023-07-22T13:13:20;2.22;;;1.33;;
36291;SDS011;22327;51.208;6.418;2023-07-22T13:16:20;1.80;;;1.50;;
36291;SDS011;22327;51.208;6.418;2023-07-22T13:19:21;1.88;;;1.55;;
36291;SDS011;22327;51.208;6.418;2023-07-22T13:22:21;3.33;;;1.90;;
36291;SDS011;22327;51.208;6.418;2023-07-22T13:25:22;2.22;;;1.58;;
36291;SDS011;22327;51.208;6.418;2023-07-22T13:28:22;1.63;;;1.30;;
36291;SDS011;22327;51.208;6.418;2023-07-22T13:31:23;2.25;;;1.65;;
36291;SDS011;22327;51.208;6.418;2023-07-22T13:34:23;2.22;;;1.58;;
36291;SDS011;22327;51.208;6.418;2023-07-22T13:37:24;2.00;;;1.40;;
36291;SDS011;22327;51.208;6.418;2023-07-22T13:40:25;2.47;;;1.55;;
36291;SDS011;22327;51.208;6.418;2023-07-22T13:43:25;3.50;;;1.83;;
36291;SDS011;22327;51.208;6.418;2023-07-22T13:46:27;3.03;;;1.58;;
36291;SDS011;22327;51.208;6.418;2023-07-22T13:49:28;3.65;;;1.70;;
36291;SDS011;22327;51.208;6.418;2023-07-22T13:52:28;2.50;;;1.80;;
36291;SDS011;22327;51.208;6.418;2023-07-22T13:55:29;3.65;;;1.85;;
36291;SDS011;22327;51.208;6.418;2023-07-22T13:58:30;3.95;;;1.77;;
36291;SDS011;22327;51.208;6.418;2023-07-22T14:01:30;1.98;;;1.70;;
36291;SDS011;22327;51.208;6.418;2023-07-22T14:04:31;2.08;;;1.63;;
36291;SDS011;22327;51.208;6.418;2023-07-22T14:07:32;2.47;;;1.67;;
36291;SDS011;22327;51.208;6.418;2023-07-22T14:10:32;4.75;;;1.70;;
36291;SDS011;22327;51.208;6.418;2023-07-22T14:13:33;2.05;;;1.65;;
36291;SDS011;22327;51.208;6.418;2023-07-22T14:16:33;3.58;;;1.50;;
36291;SDS011;22327;51.208;6.418;2023-07-22T14:19:34;2.17;;;1.80;;
36291;SDS011;22327;51.208;6.418;2023-07-22T14:22:34;1.80;;;1.55;;
36291;SDS011;22327;51.208;6.418;2023-07-22T14:25:35;2.30;;;1.35;;
36291;SDS011;22327;51.208;6.418;2023-07-22T14:28:36;1.80;;;1.35;;
36291;SDS011;22327;51.208;6.418;2023-07-22T14:31:37;1.73;;;1.20;;
36291;SDS011;22327;51.208;6.418;2023-07-22T14:34:37;1.48;;;1.33;;
36291;SDS011;22327;51.208;6.418;2023-07-22T14:37:38;3.97;;;1.40;;
36291;SDS011;22327;51.208;6.418;2023-07-22T14:40:38;1.52;;;1.30;;
36291;SDS011;22327;51.208;6.418;2023-07-22T14:43:39;2.35;;;1.20;;
36291;SDS011;22327;51.208;6.418;2023-07-22T14:46:39;2.30;;;1.08;;
36291;SDS011;22327;51.208;6.418;2023-07-22T14:49:40;1.92;;;1.27;;
36291;SDS011;22327;51.208;6.418;2023-07-22T14:52:40;2.08;;;1.20;;
36291;SDS011;22327;51.208;6.418;2023-07-22T14:55:42;1.75;;;1.10;;
36291;SDS011;22327;51.208;6.418;2023-07-22T14:58:42;3.47;;;0.95;;
36291;SDS011;22327;51.208;6.418;2023-07-22T15:01:43;2.85;;;1.20;;
36291;SDS011;22327;51.208;6.418;2023-07-22T15:04:44;2.75;;;1.17;;
36291;SDS011;22327;51.208;6.418;2023-07-22T15:07:44;2.17;;;0.93;;
36291;SDS011;22327;51.208;6.418;2023-07-22T15:10:45;3.05;;;1.48;;
36291;SDS011;22327;51.208;6.418;2023-07-22T15:13:45;1.50;;;1.10;;
36291;SDS011;22327;51.208;6.418;2023-07-22T15:16:46;1.00;;;0.90;;
36291;SDS011;22327;51.208;6.418;2023-07-22T15:19:46;2.42;;;1.30;;
36291;SDS011;22327;51.208;6.418;2023-07-22T15:22:47;2.10;;;1.08;;
36291;SDS011;22327;51.208;6.418;2023-07-22T15:25:47;6.13;;;1.60;;
36291;SDS011;22327;51.208;6.418;2023-07-22T15:28:48;1.17;;;1.00;;
36291;SDS011;22327;51.208;6.418;2023-07-22T15:31:48;2.75;;;1.45;;
36291;SDS011;22327;51.208;6.418;2023-07-22T15:34:49;1.48;;;1.20;;
36291;SDS011;22327;51.208;6.418;2023-07-22T15:37:49;2.55;;;1.20;;
36291;SDS011;22327;51.208;6.418;2023-07-22T15:40:50;2.55;;;1.35;;
36291;SDS011;22327;51.208;6.418;2023-07-22T15:43:50;3.03;;;1.50;;
36291;SDS011;22327;51.208;6.418;2023-07-22T15:46:51;3.28;;;1.33;;
36291;SDS011;22327;51.208;6.418;2023-07-22T15:49:51;3.58;;;1.35;;
36291;SDS011;22327;51.208;6.418;2023-07-22T15:52:52;3.17;;;1.85;;
36291;SDS011;22327;51.208;6.418;2023-07-22T15:55:53;2.33;;;1.67;;
36291;SDS011;22327;51.208;6.418;2023-07-22T15:58:53;2.13;;;1.70;;
36291;SDS011;22327;51.208;6.418;2023-07-22T16:01:54;3.65;;;2.15;;
36291;SDS011;22327;51.208;6.418;2023-07-22T16:04:54;2.20;;;1.75;;
36291;SDS011;22327;51.208;6.418;2023-07-22T16:07:55;2.45;;;1.73;;
36291;SDS011;22327;51.208;6.418;2023-07-22T16:10:55;3.15;;;1.83;;
36291;SDS011;22327;51.208;6.418;2023-07-22T16:13:56;2.97;;;1.70;;
36291;SDS011;22327;51.208;6.418;2023-07-22T16:16:57;3.08;;;1.50;;
36291;SDS011;22327;51.208;6.418;2023-07-22T16:19:57;2.03;;;1.40;;
36291;SDS011;22327;51.208;6.418;2023-07-22T16:22:58;2.75;;;1.73;;
36291;SDS011;22327;51.208;6.418;2023-07-22T16:25:58;4.45;;;1.73;;
36291;SDS011;22327;51.208;6.418;2023-07-22T16:29:00;2.97;;;1.98;;
36291;SDS011;22327;51.208;6.418;2023-07-22T16:32:02;2.45;;;1.60;;
36291;SDS011;22327;51.208;6.418;2023-07-22T16:35:03;4.22;;;1.73;;
36291;SDS011;22327;51.208;6.418;2023-07-22T16:38:06;1.85;;;1.30;;
36291;SDS011;22327;51.208;6.418;2023-07-22T16:41:06;4.25;;;1.73;;
36291;SDS011;22327;51.208;6.418;2023-07-22T16:44:07;4.00;;;1.75;;
36291;SDS011;22327;51.208;6.418;2023-07-22T16:47:07;4.07;;;1.80;;
36291;SDS011;22327;51.208;6.418;2023-07-22T16:50:08;4.25;;;1.70;;
36291;SDS011;22327;51.208;6.418;2023-07-22T16:53:08;3.20;;;1.73;;
36291;SDS011;22327;51.208;6.418;2023-07-22T16:56:09;2.95;;;1.42;;
36291;SDS011;22327;51.208;6.418;2023-07-22T16:59:09;2.08;;;1.88;;
36291;SDS011;22327;51.208;6.418;2023-07-22T17:02:10;4.00;;;1.63;;
36291;SDS011;22327;51.208;6.418;2023-07-22T17:05:10;2.72;;;1.55;;
36291;SDS011;22327;51.208;6.418;2023-07-22T17:08:11;3.05;;;1.30;;
36291;SDS011;22327;51.208;6.418;2023-07-22T17:11:12;3.58;;;1.80;;
36291;SDS011;22327;51.208;6.418;2023-07-22T17:14:12;1.83;;;1.30;;
36291;SDS011;22327;51.208;6.418;2023-07-22T17:17:13;3.80;;;1.60;;
36291;SDS011;22327;51.208;6.418;2023-07-22T17:20:13;2.92;;;1.73;;
36291;SDS011;22327;51.208;6.418;2023-07-22T17:23:14;4.95;;;1.30;;
36291;SDS011;22327;51.208;6.418;2023-07-22T17:26:16;3.33;;;1.80;;
36291;SDS011;22327;51.208;6.418;2023-07-22T17:29:16;1.98;;;1.70;;
36291;SDS011;22327;51.208;6.418;2023-07-22T17:32:17;2.80;;;1.70;;
36291;SDS011;22327;51.208;6.418;2023-07-22T17:35:17;1.80;;;1.48;;
36291;SDS011;22327;51.208;6.418;2023-07-22T17:38:18;2.08;;;1.55;;
36291;SDS011;22327;51.208;6.418;2023-07-22T17:41:19;2.38;;;1.52;;
36291;SDS011;22327;51.208;6.418;2023-07-22T17:44:20;2.65;;;1.50;;
36291;SDS011;22327;51.208;6.418;2023-07-22T17:47:20;2.95;;;1.17;;
36291;SDS011;22327;51.208;6.418;2023-07-22T17:50:21;1.55;;;1.33;;
36291;SDS011;22327;51.208;6.418;2023-07-22T17:53:22;2.90;;;1.50;;
36291;SDS011;22327;51.208;6.418;2023-07-22T17:56:22;2.03;;;1.30;;
36291;SDS011;22327;51.208;6.418;2023-07-22T17:59:23;2.10;;;1.50;;
36291;SDS011;22327;51.208;6.418;2023-07-22T18:02:23;2.63;;;1.48;;
36291;SDS011;22327;51.208;6.418;2023-07-22T18:05:24;2.25;;;1.45;;
36291;SDS011;22327;51.208;6.418;2023-07-22T18:08:25;2.13;;;1.40;;
36291;SDS011;22327;51.208;6.418;2023-07-22T18:11:26;1.42;;;1.20;;
36291;SDS011;22327;51.208;6.418;2023-07-22T18:14:26;2.83;;;1.38;;
36291;SDS011;22327;51.208;6.418;2023-07-22T18:17:27;2.90;;;1.70;;
36291;SDS011;22327;51.208;6.418;2023-07-22T18:20:27;2.28;;;1.40;;